Time;durP1;ratioP1;P1;durP2;ratioP2;P2;SDS_P1;SDS_P2;PMS_P1;PMS_P2;Temp;Humidity;BMP_temperature;BMP_pressure;BME280_temperature;BME280_humidity;BME280_pressure;Samples;Min_cycle;Max_cycle;Signal;HPM_P1;HPM_P2
2022/03/28 00:02:17;;;;;;;20.60;9.37;;;7.40;99.90;;;;;;5060108;28;20199;-76
2022/03/28 00:04:42;;;;;;;18.47;10.60;;;7.40;99.90;;;;;;5042272;28;20647;-76
2022/03/28 00:07:08;;;;;;;18.10;10.30;;;7.30;99.90;;;;;;5059056;28;20226;-76
2022/03/28 00:09:33;;;;;;;16.93;10.57;;;7.30;99.90;;;;;;5041973;28;20195;-76
2022/03/28 00:11:59;;;;;;;16.00;10.20;;;7.30;99.90;;;;;;5059322;28;20171;-76
2022/03/28 00:14:24;;;;;;;18.13;11.80;;;7.20;99.90;;;;;;5041976;28;20187;-76
2022/03/28 00:16:50;;;;;;;19.80;10.77;;;7.20;99.90;;;;;;5059623;28;20248;-76
2022/03/28 00:19:16;;;;;;;18.27;11.00;;;7.10;99.90;;;;;;5060230;28;20186;-76
2022/03/28 00:21:41;;;;;;;17.30;10.87;;;7.20;99.90;;;;;;5041465;28;20185;-76
2022/03/28 00:24:07;;;;;;;16.93;11.00;;;7.20;99.90;;;;;;5059073;28;20176;-76
2022/03/28 00:26:33;;;;;;;15.73;10.97;;;7.10;99.90;;;;;;5058706;28;20191;-76
2022/03/28 00:28:59;;;;;;;15.43;10.30;;;7.10;99.90;;;;;;5059261;28;20202;-76
2022/03/28 00:31:24;;;;;;;15.13;9.87;;;7.10;99.90;;;;;;5058482;28;20171;-76
2022/03/28 00:33:50;;;;;;;23.37;10.73;;;7.00;99.90;;;;;;5058577;28;20217;-76
2022/03/28 00:36:15;;;;;;;16.00;10.13;;;7.00;99.90;;;;;;5058325;28;20191;-76
2022/03/28 00:38:41;;;;;;;16.27;10.60;;;7.00;99.90;;;;;;5040946;28;20176;-76
2022/03/28 00:41:07;;;;;;;19.30;10.93;;;6.90;99.90;;;;;;5058842;28;20182;-76
2022/03/28 00:43:33;;;;;;;17.57;10.23;;;6.90;99.90;;;;;;5059077;28;20631;-76
2022/03/28 00:45:58;;;;;;;17.67;10.53;;;6.90;99.90;;;;;;5040956;28;20290;-76
2022/03/28 00:48:26;;;;;;;17.77;10.27;;;6.90;99.90;;;;;;5058295;28;20215;-76
2022/03/28 00:50:56;;;;;;;16.73;11.53;;;6.80;99.90;;;;;;5040438;28;20168;-76
2022/03/28 00:53:24;;;;;;;18.83;12.27;;;6.80;99.90;;;;;;5041129;28;20171;-76
2022/03/28 00:55:50;;;;;;;17.03;12.17;;;6.70;99.90;;;;;;5058373;28;20183;-76
2022/03/28 00:58:15;;;;;;;19.50;11.70;;;6.70;99.90;;;;;;5040521;28;20178;-76
2022/03/28 01:00:41;;;;;;;21.47;11.60;;;6.70;99.90;;;;;;5059511;28;20179;-76
2022/03/28 01:03:06;;;;;;;20.63;11.93;;;6.60;99.90;;;;;;5058815;28;20175;-76
2022/03/28 01:05:32;;;;;;;19.13;12.20;;;6.60;99.90;;;;;;5058356;28;20554;-76
2022/03/28 01:08:00;;;;;;;20.33;12.63;;;6.50;99.90;;;;;;5040415;28;20702;-76
2022/03/28 01:10:26;;;;;;;20.50;11.67;;;6.50;99.90;;;;;;5039728;28;20202;-76
2022/03/28 01:12:52;;;;;;;18.50;11.67;;;6.50;99.90;;;;;;5040396;28;20179;-75
2022/03/28 01:15:18;;;;;;;20.77;13.17;;;6.50;99.90;;;;;;5040279;28;20175;-77
2022/03/28 01:20:34;;;;;;;19.87;12.17;;;6.40;99.90;;;;;;5057460;28;20277;-76
2022/03/28 01:23:00;;;;;;;21.53;12.10;;;6.30;99.90;;;;;;5057597;28;20150;-76
2022/03/28 01:25:27;;;;;;;20.53;11.50;;;6.30;99.90;;;;;;5040407;28;20167;-76
2022/03/28 01:27:54;;;;;;;18.00;10.10;;;6.20;99.90;;;;;;5057464;28;20647;-76
2022/03/28 01:30:21;;;;;;;20.53;11.03;;;6.20;99.90;;;;;;5057534;28;20175;-76
2022/03/28 01:32:48;;;;;;;16.20;10.53;;;6.20;99.90;;;;;;5039670;28;20631;-75
2022/03/28 01:35:23;;;;;;;18.60;10.87;;;6.20;99.90;;;;;;5039285;28;20180;-75
2022/03/28 01:37:49;;;;;;;19.20;11.87;;;6.20;99.90;;;;;;5057286;28;20271;-75
2022/03/28 01:40:15;;;;;;;14.80;10.10;;;6.10;99.90;;;;;;5038641;28;20171;-76
2022/03/28 01:42:40;;;;;;;19.40;11.87;;;6.10;99.90;;;;;;5057292;28;20635;-76
2022/03/28 01:45:06;;;;;;;20.40;12.67;;;6.00;99.90;;;;;;5056173;28;20179;-77
2022/03/28 01:47:32;;;;;;;21.97;12.00;;;6.00;99.90;;;;;;5056319;28;20195;-76
2022/03/28 01:49:57;;;;;;;18.47;11.37;;;6.00;99.90;;;;;;5056410;28;20216;-76
2022/03/28 01:52:23;;;;;;;24.17;11.67;;;6.10;99.90;;;;;;5056462;28;20175;-76
2022/03/28 01:54:48;;;;;;;17.33;11.63;;;6.00;99.90;;;;;;5038033;28;20321;-76
2022/03/28 01:57:14;;;;;;;18.13;12.17;;;5.90;99.90;;;;;;5037908;28;20206;-76
2022/03/28 01:59:40;;;;;;;15.97;10.73;;;5.90;99.90;;;;;;5055942;28;20180;-76
2022/03/28 02:02:05;;;;;;;20.27;11.37;;;5.90;99.90;;;;;;5056146;28;20187;-75
2022/03/28 02:04:32;;;;;;;19.47;11.93;;;5.90;99.90;;;;;;5055625;28;20183;-76
2022/03/28 02:06:58;;;;;;;17.77;11.27;;;5.80;99.90;;;;;;5059246;23;20227;-79
2022/03/28 02:09:23;;;;;;;22.70;11.83;;;5.80;99.90;;;;;;5057815;28;20206;-79
2022/03/28 02:11:49;;;;;;;19.77;11.77;;;5.80;99.90;;;;;;5058497;28;20167;-79
2022/03/28 02:14:14;;;;;;;18.37;10.80;;;5.80;99.90;;;;;;5057995;28;20171;-79
2022/03/28 02:16:40;;;;;;;15.20;9.87;;;5.80;99.90;;;;;;5058475;28;20190;-78
2022/03/28 02:19:05;;;;;;;17.87;10.37;;;5.80;99.90;;;;;;5058342;28;20171;-79
2022/03/28 02:21:31;;;;;;;17.43;10.93;;;5.70;99.90;;;;;;5054607;28;20250;-78
2022/03/28 02:23:56;;;;;;;21.87;12.10;;;5.60;99.90;;;;;;5055392;28;20264;-78
2022/03/28 02:26:22;;;;;;;21.73;12.13;;;5.70;99.90;;;;;;5055491;28;20191;-79
2022/03/28 02:28:48;;;;;;;19.77;11.73;;;5.60;99.90;;;;;;5055531;28;20283;-79
2022/03/28 02:31:13;;;;;;;19.77;11.60;;;5.60;99.90;;;;;;5055229;28;20186;-78
2022/03/28 02:33:39;;;;;;;22.63;11.80;;;5.50;99.90;;;;;;5055846;28;20172;-78
2022/03/28 02:36:05;;;;;;;22.03;12.60;;;5.50;99.90;;;;;;5053609;28;20643;-78
2022/03/28 02:38:31;;;;;;;26.37;12.97;;;5.50;99.90;;;;;;5054046;28;20642;-78
2022/03/28 02:40:56;;;;;;;20.20;12.50;;;5.50;99.90;;;;;;5054974;28;20245;-79
2022/03/28 02:43:23;;;;;;;21.20;12.50;;;5.40;99.90;;;;;;5055229;28;20225;-78
2022/03/28 02:45:48;;;;;;;23.53;13.57;;;5.40;99.90;;;;;;5053416;28;20639;-78
2022/03/28 02:48:14;;;;;;;21.10;12.87;;;5.40;99.90;;;;;;5055305;28;20199;-78
2022/03/28 02:50:39;;;;;;;22.30;12.03;;;5.40;99.90;;;;;;5054953;28;20175;-78
2022/03/28 02:53:05;;;;;;;24.63;12.00;;;5.40;99.90;;;;;;5054730;28;20581;-78
2022/03/28 02:55:31;;;;;;;26.03;12.60;;;5.30;99.90;;;;;;5053360;28;20666;-78
2022/03/28 02:57:56;;;;;;;25.23;12.87;;;5.30;99.90;;;;;;5054392;28;20195;-79
2022/03/28 03:00:22;;;;;;;26.80;12.53;;;5.30;99.90;;;;;;5053170;28;20662;-78
2022/03/28 03:02:47;;;;;;;22.90;11.70;;;5.30;99.90;;;;;;5055181;28;20222;-78
2022/03/28 03:05:13;;;;;;;19.83;12.17;;;5.30;99.90;;;;;;5054540;28;20171;-78
2022/03/28 03:07:39;;;;;;;24.33;12.43;;;5.20;99.90;;;;;;5052556;28;20207;-79
2022/03/28 03:10:06;;;;;;;19.57;12.40;;;5.20;99.90;;;;;;5053229;28;20643;-78
2022/03/28 03:12:32;;;;;;;23.90;13.33;;;5.20;99.90;;;;;;5052849;28;20223;-78
2022/03/28 03:14:58;;;;;;;22.50;12.43;;;5.20;99.90;;;;;;5054467;28;20515;-78
2022/03/28 03:17:23;;;;;;;21.53;12.70;;;5.20;99.90;;;;;;5053504;28;20206;-78
2022/03/28 03:19:49;;;;;;;21.57;12.60;;;5.10;99.90;;;;;;5054726;28;20286;-78
2022/03/28 03:22:15;;;;;;;23.57;13.83;;;5.10;99.90;;;;;;5054308;28;20182;-78
2022/03/28 03:24:44;;;;;;;24.20;13.63;;;5.10;99.90;;;;;;5054451;28;20176;-81
2022/03/28 03:27:11;;;;;;;24.67;14.17;;;5.10;99.90;;;;;;5055300;28;20309;-78
2022/03/28 03:29:37;;;;;;;21.87;12.67;;;5.10;99.90;;;;;;5053759;28;20199;-79
2022/03/28 03:32:03;;;;;;;26.30;13.53;;;5.10;99.90;;;;;;5055722;28;20627;-78
2022/03/28 03:34:30;;;;;;;20.97;12.50;;;5.10;99.90;;;;;;5058747;28;20167;-78
2022/03/28 03:36:55;;;;;;;24.23;13.67;;;5.10;99.90;;;;;;5060427;28;20562;-78
2022/03/28 03:39:22;;;;;;;27.60;13.07;;;5.00;99.90;;;;;;5059248;28;20175;-78
2022/03/28 03:41:48;;;;;;;19.73;12.70;;;5.00;99.90;;;;;;5060241;28;20172;-79
2022/03/28 03:44:14;;;;;;;23.73;13.33;;;4.90;99.90;;;;;;5058959;28;20574;-79
2022/03/28 03:46:40;;;;;;;26.67;13.50;;;4.90;99.90;;;;;;5058208;28;20210;-79
2022/03/28 03:49:05;;;;;;;20.83;12.53;;;4.90;99.90;;;;;;5059995;28;20219;-79
2022/03/28 03:51:31;;;;;;;23.53;13.63;;;4.90;99.90;;;;;;5058313;28;20201;-79
2022/03/28 03:53:56;;;;;;;23.77;13.87;;;4.80;99.90;;;;;;5058218;28;20210;-78
2022/03/28 03:56:23;;;;;;;25.63;13.33;;;4.80;99.90;;;;;;5060665;28;20194;-79
2022/03/28 03:58:48;;;;;;;24.43;13.60;;;4.70;99.90;;;;;;5062826;28;20174;-77
2022/03/28 04:01:14;;;;;;;21.67;13.37;;;4.70;99.90;;;;;;5062726;28;20183;-78
2022/03/28 04:03:40;;;;;;;25.47;13.87;;;4.70;99.90;;;;;;5060646;28;20234;-78
2022/03/28 04:06:05;;;;;;;18.73;12.37;;;4.70;99.90;;;;;;5060212;28;20172;-79
2022/03/28 04:08:31;;;;;;;20.40;12.37;;;4.70;99.90;;;;;;5056632;28;20211;-78
2022/03/28 04:10:57;;;;;;;23.73;13.20;;;4.70;99.90;;;;;;5056341;28;20175;-78
2022/03/28 04:13:23;;;;;;;24.80;13.67;;;4.70;99.90;;;;;;5056595;28;20226;-78
2022/03/28 04:15:49;;;;;;;19.33;12.13;;;4.70;99.90;;;;;;5056794;28;20176;-78
2022/03/28 04:18:15;;;;;;;19.90;12.20;;;4.60;99.90;;;;;;5056454;28;20192;-79
2022/03/28 04:20:41;;;;;;;21.20;12.07;;;4.60;99.90;;;;;;5056973;28;20184;-79
2022/03/28 04:23:07;;;;;;;20.07;12.37;;;4.60;99.90;;;;;;5056753;28;20263;-78
2022/03/28 04:25:32;;;;;;;20.60;12.27;;;4.60;99.90;;;;;;5057296;28;20249;-78
2022/03/28 04:27:58;;;;;;;20.43;12.03;;;4.60;99.90;;;;;;5056487;28;20295;-78
2022/03/28 04:30:24;;;;;;;24.90;14.37;;;4.60;99.90;;;;;;5055450;28;20180;-78
2022/03/28 04:32:50;;;;;;;24.00;14.87;;;4.50;99.90;;;;;;5055948;28;20186;-78
2022/03/28 04:35:16;;;;;;;24.07;13.93;;;4.50;99.90;;;;;;5055449;28;20609;-78
2022/03/28 04:37:43;;;;;;;21.23;13.07;;;4.40;99.90;;;;;;5055646;28;20202;-78
2022/03/28 04:40:12;;;;;;;24.20;14.13;;;4.40;99.90;;;;;;5054878;28;20304;-78
2022/03/28 04:42:37;;;;;;;19.97;12.53;;;4.40;99.90;;;;;;5055308;28;20229;-77
2022/03/28 04:45:07;;;;;;;25.30;13.80;;;4.40;99.90;;;;;;5054759;28;20179;-77
2022/03/28 04:47:34;;;;;;;20.33;12.60;;;4.30;99.90;;;;;;5054192;28;20224;-77
2022/03/28 04:49:59;;;;;;;23.23;12.80;;;4.30;99.90;;;;;;5055532;28;20249;-77
2022/03/28 04:52:25;;;;;;;23.03;12.93;;;4.30;99.90;;;;;;5053930;28;20180;-77
2022/03/28 04:54:51;;;;;;;24.07;12.97;;;4.30;99.90;;;;;;5055363;28;20236;-77
2022/03/28 04:57:17;;;;;;;20.93;12.63;;;4.30;99.90;;;;;;5053828;28;20749;-76
2022/03/28 04:59:42;;;;;;;23.67;12.63;;;4.20;99.90;;;;;;5055675;28;20230;-77
2022/03/28 05:02:08;;;;;;;21.40;12.20;;;4.20;99.90;;;;;;5055689;28;20228;-77
2022/03/28 05:04:35;;;;;;;20.87;12.77;;;4.20;99.90;;;;;;5055390;28;20665;-77
2022/03/28 05:07:01;;;;;;;22.30;12.73;;;4.20;99.90;;;;;;5055338;28;20216;-76
2022/03/28 05:09:26;;;;;;;19.33;11.83;;;4.20;99.90;;;;;;5056273;28;20199;-78
2022/03/28 05:11:52;;;;;;;21.23;12.20;;;4.10;99.90;;;;;;5056716;28;20251;-78
2022/03/28 05:14:18;;;;;;;18.93;11.27;;;4.10;99.90;;;;;;5058143;28;20176;-80
2022/03/28 05:16:44;;;;;;;20.13;11.30;;;4.10;99.90;;;;;;5054661;28;20202;-76
2022/03/28 05:19:09;;;;;;;23.67;11.80;;;4.00;99.90;;;;;;5054848;28;20558;-75
2022/03/28 05:21:35;;;;;;;23.03;12.37;;;4.00;99.90;;;;;;5054655;28;20179;-76
2022/03/28 05:24:01;;;;;;;21.87;11.63;;;4.00;99.90;;;;;;5054418;28;20635;-76
2022/03/28 05:26:26;;;;;;;21.90;13.03;;;4.00;99.90;;;;;;5054276;28;20200;-77
2022/03/28 05:28:52;;;;;;;28.10;14.00;;;4.00;99.90;;;;;;5055619;28;20199;-80
2022/03/28 05:31:18;;;;;;;25.57;12.67;;;4.00;99.90;;;;;;5057671;28;20251;-80
2022/03/28 05:33:44;;;;;;;22.13;12.80;;;4.00;99.90;;;;;;5057896;28;20199;-77
2022/03/28 05:36:10;;;;;;;26.53;13.87;;;4.00;99.90;;;;;;5058108;28;20195;-80
2022/03/28 05:38:36;;;;;;;21.67;12.70;;;4.00;99.90;;;;;;5058449;28;20206;-80
2022/03/28 05:41:05;;;;;;;22.80;13.73;;;4.00;99.90;;;;;;5058685;28;20635;-80
2022/03/28 05:43:30;;;;;;;23.80;12.80;;;4.00;99.90;;;;;;5058599;28;20167;-78
2022/03/28 05:45:56;;;;;;;21.63;13.13;;;4.00;99.90;;;;;;5059247;28;20229;-80
2022/03/28 05:48:22;;;;;;;21.30;13.17;;;4.00;99.90;;;;;;5059223;28;20203;-79
2022/03/28 05:50:49;;;;;;;20.87;12.50;;;4.00;99.90;;;;;;5059661;28;20297;-77
2022/03/28 05:53:15;;;;;;;21.73;13.07;;;4.10;99.90;;;;;;5062515;28;20531;-79
2022/03/28 05:55:41;;;;;;;21.20;13.10;;;4.00;99.90;;;;;;5055921;28;20225;-78
2022/03/28 05:58:08;;;;;;;23.47;12.93;;;4.00;99.90;;;;;;5054108;28;20203;-78
2022/03/28 06:00:34;;;;;;;18.43;12.87;;;4.00;99.90;;;;;;5055130;28;20597;-80
2022/03/28 06:03:00;;;;;;;26.10;12.97;;;4.00;99.90;;;;;;5055311;28;20246;-80
2022/03/28 06:05:26;;;;;;;20.93;12.53;;;4.00;99.90;;;;;;5056592;28;20180;-78
2022/03/28 06:07:51;;;;;;;22.77;13.33;;;4.00;99.90;;;;;;5057692;28;20247;-80
2022/03/28 06:10:17;;;;;;;23.03;13.53;;;4.10;99.90;;;;;;5054954;28;20202;-79
2022/03/28 06:12:43;;;;;;;24.93;13.37;;;4.10;99.90;;;;;;5055380;28;20278;-79
2022/03/28 06:15:09;;;;;;;22.83;13.07;;;4.20;99.90;;;;;;5055947;28;20638;-79
2022/03/28 06:17:35;;;;;;;22.23;12.47;;;4.10;99.90;;;;;;5055755;28;20192;-79
2022/03/28 06:20:04;;;;;;;24.10;13.47;;;4.10;99.90;;;;;;5056438;28;20610;-79
2022/03/28 06:22:30;;;;;;;24.30;13.20;;;4.20;99.90;;;;;;5054501;28;20183;-79
2022/03/28 06:24:56;;;;;;;22.77;13.63;;;4.20;99.90;;;;;;5056536;28;20187;-80
2022/03/28 06:27:24;;;;;;;24.17;13.10;;;4.30;99.90;;;;;;5057007;28;20693;-80
2022/03/28 06:29:51;;;;;;;26.57;12.77;;;4.30;99.90;;;;;;5065921;28;20196;-79
2022/03/28 06:32:16;;;;;;;23.90;13.07;;;4.40;99.90;;;;;;5063666;28;20172;-79
2022/03/28 06:34:42;;;;;;;22.13;13.43;;;4.40;99.90;;;;;;5063773;28;20187;-79
2022/03/28 06:37:07;;;;;;;21.73;13.57;;;4.40;99.90;;;;;;5064745;28;20199;-80
2022/03/28 06:39:34;;;;;;;22.73;14.00;;;4.50;99.90;;;;;;5064951;28;20206;-79
2022/03/28 06:42:00;;;;;;;22.23;12.83;;;4.60;99.90;;;;;;5066619;28;20353;-79
2022/03/28 06:44:26;;;;;;;23.97;14.00;;;4.60;99.90;;;;;;5067432;28;20175;-79
2022/03/28 06:46:52;;;;;;;23.90;14.00;;;4.60;99.90;;;;;;5067118;28;20202;-79
2022/03/28 06:49:17;;;;;;;24.60;13.63;;;4.80;99.90;;;;;;5068008;28;20274;-80
2022/03/28 06:51:43;;;;;;;26.40;14.33;;;4.80;99.90;;;;;;5066640;28;20191;-78
2022/03/28 06:54:09;;;;;;;22.60;13.90;;;4.90;99.90;;;;;;5067351;28;20175;-79
2022/03/28 06:56:37;;;;;;;24.83;15.03;;;4.90;99.90;;;;;;5066796;28;20546;-80
2022/03/28 06:59:03;;;;;;;24.93;13.77;;;5.00;99.90;;;;;;5069792;28;20191;-79
2022/03/28 07:01:28;;;;;;;24.73;14.77;;;5.10;99.90;;;;;;5067596;28;20242;-80
2022/03/28 07:03:55;;;;;;;25.37;14.70;;;5.10;99.90;;;;;;5068960;28;20251;-80
2022/03/28 07:06:21;;;;;;;22.63;13.17;;;5.20;99.90;;;;;;5071156;28;20188;-79
2022/03/28 07:08:47;;;;;;;29.70;15.53;;;5.30;99.90;;;;;;5075024;28;20180;-77
2022/03/28 07:11:13;;;;;;;30.03;16.07;;;5.40;99.90;;;;;;5076630;28;20160;-79
2022/03/28 07:13:38;;;;;;;28.60;15.93;;;5.50;99.90;;;;;;5067244;28;20182;-79
2022/03/28 07:16:04;;;;;;;24.00;15.43;;;5.70;99.90;;;;;;5069121;28;20183;-78
2022/03/28 07:18:29;;;;;;;31.93;15.90;;;5.70;99.90;;;;;;5069711;28;20174;-80
2022/03/28 07:20:55;;;;;;;30.83;16.43;;;5.90;99.90;;;;;;5069301;28;20171;-80
2022/03/28 07:23:22;;;;;;;26.70;15.70;;;6.00;99.90;;;;;;5068623;28;20179;-80
2022/03/28 07:25:48;;;;;;;26.13;16.13;;;6.10;99.90;;;;;;5070946;28;20653;-80
2022/03/28 07:28:15;;;;;;;30.80;17.30;;;6.30;99.90;;;;;;5069155;28;20199;-80
2022/03/28 07:30:41;;;;;;;38.80;19.53;;;6.40;99.90;;;;;;5070331;28;20171;-80
2022/03/28 07:33:07;;;;;;;33.17;19.60;;;6.60;99.90;;;;;;5073790;28;20217;-80
2022/03/28 07:35:35;;;;;;;37.10;19.53;;;6.80;99.90;;;;;;5073122;28;20166;-80
2022/03/28 07:38:01;;;;;;;35.80;19.93;;;6.90;99.90;;;;;;5074738;28;20183;-80
2022/03/28 07:40:27;;;;;;;37.10;19.70;;;7.10;99.90;;;;;;5077697;28;20576;-80
2022/03/28 07:42:53;;;;;;;32.03;20.10;;;7.30;99.90;;;;;;5071235;28;20285;-80
2022/03/28 07:45:20;;;;;;;36.27;20.93;;;7.40;99.90;;;;;;5071359;28;20191;-80
2022/03/28 07:47:46;;;;;;;27.93;18.80;;;7.60;99.90;;;;;;5070999;28;20200;-79
2022/03/28 07:50:12;;;;;;;32.33;20.20;;;7.80;99.90;;;;;;5071090;28;20184;-80
2022/03/28 07:52:39;;;;;;;34.87;21.73;;;7.90;99.90;;;;;;5071311;28;20270;-80
2022/03/28 07:55:06;;;;;;;41.30;23.37;;;8.00;99.90;;;;;;5070993;28;20673;-80
2022/03/28 07:57:33;;;;;;;37.93;23.73;;;8.20;99.90;;;;;;5072233;28;20192;-80
2022/03/28 07:59:58;;;;;;;35.60;21.73;;;8.30;99.90;;;;;;5072168;28;20262;-80
2022/03/28 08:02:24;;;;;;;43.30;22.70;;;8.30;99.90;;;;;;5071762;28;20191;-79
2022/03/28 08:04:50;;;;;;;34.03;20.93;;;8.50;99.90;;;;;;5071391;28;20182;-80
2022/03/28 08:07:16;;;;;;;37.10;21.57;;;8.60;99.90;;;;;;5072326;28;20208;-80
2022/03/28 08:09:41;;;;;;;38.13;22.27;;;8.70;99.90;;;;;;5101094;22;20281;-75
2022/03/28 08:12:09;;;;;;;35.50;22.60;;;8.80;99.90;;;;;;5041510;28;20198;-75
2022/03/28 08:14:36;;;;;;;39.30;22.60;;;8.90;99.90;;;;;;5040948;28;20179;-75
2022/03/28 08:17:02;;;;;;;40.07;23.13;;;9.00;99.90;;;;;;5058996;28;20542;-75
2022/03/28 08:19:28;;;;;;;36.23;23.37;;;9.10;99.90;;;;;;5058243;28;20269;-76
2022/03/28 08:21:54;;;;;;;35.07;22.80;;;9.20;99.90;;;;;;5058699;28;20612;-75
2022/03/28 08:24:20;;;;;;;36.87;21.83;;;9.30;99.90;;;;;;5040783;28;20174;-74
2022/03/28 08:26:46;;;;;;;34.73;21.63;;;9.50;99.90;;;;;;5040474;28;20179;-75
2022/03/28 08:29:12;;;;;;;39.40;21.97;;;9.50;99.90;;;;;;5040495;28;20214;-75
2022/03/28 08:31:38;;;;;;;33.83;20.80;;;9.60;99.90;;;;;;5058352;28;20258;-76
2022/03/28 08:34:03;;;;;;;31.77;21.57;;;9.70;99.90;;;;;;5059173;28;20202;-75
2022/03/28 08:36:29;;;;;;;40.70;23.00;;;9.80;99.90;;;;;;5059206;28;20176;-75
2022/03/28 08:38:54;;;;;;;38.70;24.00;;;10.00;99.90;;;;;;5058646;28;20329;-75
2022/03/28 08:41:25;;;;;;;42.40;22.77;;;10.10;99.90;;;;;;5058525;28;20501;-75
2022/03/28 08:43:51;;;;;;;33.43;21.53;;;10.40;99.90;;;;;;5058614;28;20240;-75
2022/03/28 08:46:18;;;;;;;35.67;20.80;;;10.50;99.90;;;;;;5040039;28;20826;-74
2022/03/28 08:48:44;;;;;;;34.77;21.83;;;10.60;99.90;;;;;;5039876;28;20231;-75
2022/03/28 08:51:12;;;;;;;31.23;20.90;;;10.70;99.90;;;;;;5039510;28;20175;-74
2022/03/28 08:53:39;;;;;;;35.87;21.43;;;10.70;99.90;;;;;;5057139;28;20539;-75
2022/03/28 08:56:07;;;;;;;36.93;20.77;;;10.80;99.90;;;;;;5039142;28;20167;-75
2022/03/28 08:58:33;;;;;;;32.93;20.57;;;10.90;99.90;;;;;;5038749;28;20175;-76
2022/03/28 09:01:00;;;;;;;35.53;22.20;;;11.00;99.90;;;;;;5041798;28;20180;-75
2022/03/28 09:03:40;;;;;;;31.77;20.53;;;11.00;91.10;;;;;;5058965;28;20210;-75
2022/03/28 09:06:43;;;;;;;32.63;20.67;;;11.10;1.00;;;;;;5040572;28;20180;-75
2022/03/28 09:09:17;;;;;;;30.73;21.03;;;11.20;1.00;;;;;;5058236;28;20758;-75
2022/03/28 09:11:54;;;;;;;32.83;20.67;;;11.30;1.00;;;;;;5040473;28;20187;-74
2022/03/28 09:14:35;;;;;;;34.00;21.00;;;11.40;1.00;;;;;;5039351;28;20163;-75
2022/03/28 09:17:04;;;;;;;30.90;20.80;;;11.70;1.00;;;;;;5038754;28;20222;-75
2022/03/28 09:19:55;;;;;;;36.33;21.60;;;11.90;99.90;;;;;;5039157;28;20223;-75
2022/03/28 09:22:27;;;;;;;30.70;20.03;;;12.10;1.00;;;;;;5056358;28;20169;-75
2022/03/28 09:24:55;;;;;;;32.40;19.87;;;12.30;1.00;;;;;;5056644;28;20620;-75
2022/03/28 09:27:24;;;;;;;34.17;21.30;;;12.40;99.90;;;;;;5056552;28;20543;-75
2022/03/28 09:29:57;;;;;;;32.80;21.20;;;12.60;1.00;;;;;;5038032;28;20216;-74
2022/03/28 09:32:34;;;;;;;30.40;19.70;;;12.70;1.00;;;;;;5037471;28;20204;-75
2022/03/28 09:35:09;;;;;;;37.30;22.07;;;12.80;1.00;;;;;;5039221;28;20168;-75
2022/03/28 09:38:04;;;;;;;33.57;21.03;;;12.90;1.00;;;;;;5056429;28;20163;-75
2022/03/28 09:40:34;;;;;;;31.13;20.87;;;13.00;1.00;;;;;;5057664;28;20184;-75
2022/03/28 09:43:03;;;;;;;28.13;19.60;;;13.00;1.00;;;;;;5039739;28;20163;-75
2022/03/28 09:45:37;;;;;;;29.80;20.50;;;13.10;26.60;;;;;;5039326;28;20241;-75
2022/03/28 09:48:15;;;;;;;32.33;22.03;;;13.20;1.00;;;;;;5056975;28;20212;-75
2022/03/28 09:50:49;;;;;;;35.37;20.97;;;13.30;1.00;;;;;;5038672;28;20249;-75
2022/03/28 09:53:25;;;;;;;32.43;20.63;;;13.50;99.90;;;;;;5055676;28;20167;-76
2022/03/28 09:55:56;;;;;;;28.87;20.63;;;13.60;99.90;;;;;;5057137;28;20586;-73
2022/03/28 09:58:37;;;;;;;33.67;22.27;;;13.60;99.90;;;;;;5039171;28;20190;-75
2022/03/28 10:01:16;;;;;;;34.07;21.17;;;13.70;1.00;;;;;;5057329;28;20159;-75
2022/03/28 10:03:50;;;;;;;35.83;22.87;;;13.70;99.90;;;;;;5040333;28;20229;-73
2022/03/28 10:06:23;;;;;;;31.47;21.30;;;13.80;1.00;;;;;;5039151;28;20167;-74
2022/03/28 10:08:49;;;;;;;33.23;22.33;;;13.80;24.70;;;;;;5038597;28;20233;-73
2022/03/28 10:11:18;;;;;;;34.37;24.40;;;14.00;99.90;;;;;;5056784;28;20175;-73
2022/03/28 10:13:45;;;;;;;32.97;22.47;;;14.00;99.90;;;;;;5055496;28;20160;-74
2022/03/28 10:16:11;;;;;;;34.87;22.73;;;14.00;99.90;;;;;;5036987;28;20268;-75
2022/03/28 10:18:39;;;;;;;36.70;24.13;;;14.20;99.90;;;;;;5037402;28;20190;-73
2022/03/28 10:21:30;;;;;;;35.97;23.80;;;14.20;1.00;;;;;;5055392;28;20250;-76
2022/03/28 10:24:18;;;;;;;36.10;23.97;;;14.30;99.90;;;;;;5055367;28;20168;-73
2022/03/28 10:26:50;;;;;;;36.50;25.00;;;14.40;1.00;;;;;;5037466;28;20742;-74
2022/03/28 10:29:17;;;;;;;43.63;25.20;;;14.50;1.00;;;;;;5037772;28;20203;-73
2022/03/28 10:32:13;;;;;;;41.90;25.80;;;14.50;1.00;;;;;;5054352;28;20489;-73
2022/03/28 10:34:45;;;;;;;37.53;25.87;;;14.60;99.90;;;;;;5053451;28;20210;-73
2022/03/28 10:37:29;;;;;;;43.23;27.77;;;14.70;1.00;;;;;;5054925;28;20206;-73
2022/03/28 10:40:25;;;;;;;41.57;28.60;;;14.80;65.60;;;;;;5054471;28;20191;-74
2022/03/28 10:42:57;;;;;;;49.20;27.77;;;14.90;1.00;;;;;;5037615;28;20176;-74
2022/03/28 10:45:32;;;;;;;38.03;26.63;;;14.90;81.50;;;;;;5036591;28;20175;-73
2022/03/28 10:47:59;;;;;;;49.80;30.00;;;15.00;99.90;;;;;;5038016;28;20163;-74
2022/03/28 10:50:51;;;;;;;38.90;28.13;;;15.00;99.90;;;;;;5034763;28;20629;-74
2022/03/28 10:53:40;;;;;;;45.17;27.70;;;15.00;42.20;;;;;;5026956;28;20202;-75
2022/03/28 10:56:35;;;;;;;40.97;27.70;;;15.10;1.00;;;;;;5037218;28;20544;-76
2022/03/28 10:59:06;;;;;;;42.93;28.07;;;15.10;1.00;;;;;;5058842;28;20199;-77
2022/03/28 11:01:36;;;;;;;36.07;24.63;;;15.20;1.00;;;;;;5037169;28;20206;-76
2022/03/28 11:04:02;;;;;;;44.93;26.90;;;15.40;1.00;;;;;;5052829;28;20639;-76
2022/03/28 11:06:47;;;;;;;40.17;24.80;;;15.40;99.90;;;;;;5052902;28;20230;-76
2022/03/28 11:09:13;;;;;;;43.50;26.43;;;15.50;1.00;;;;;;5052345;28;20214;-76
2022/03/28 11:11:59;;;;;;;43.97;25.23;;;15.60;1.00;;;;;;5052867;28;20199;-76
2022/03/28 11:14:51;;;;;;;36.57;24.87;;;15.70;99.90;;;;;;5035070;28;20211;-77
2022/03/28 11:17:24;;;;;;;34.07;24.60;;;15.70;99.90;;;;;;5053176;28;20186;-76
2022/03/28 11:20:13;;;;;;;38.43;25.23;;;15.80;99.90;;;;;;5034823;28;20198;-76
2022/03/28 11:23:21;;;;;;;40.53;25.87;;;15.80;99.90;;;;;;5035052;28;20713;-76
2022/03/28 11:25:51;;;;;;;36.53;25.10;;;15.90;99.90;;;;;;4936845;29;20242;-76
2022/03/28 11:28:23;;;;;;;38.27;24.77;;;16.00;99.90;;;;;;5023256;28;20737;-76
2022/03/28 11:30:51;;;;;;;42.27;26.47;;;16.00;99.90;;;;;;5036999;28;20537;-75
2022/03/28 11:33:22;;;;;;;39.63;25.03;;;16.10;1.00;;;;;;5055377;28;20172;-76
2022/03/28 11:35:56;;;;;;;42.30;27.20;;;16.10;1.00;;;;;;5055525;28;20168;-76
2022/03/28 11:38:27;;;;;;;43.33;25.63;;;16.20;1.00;;;;;;5054831;28;20182;-76
2022/03/28 11:40:54;;;;;;;38.37;26.00;;;16.20;1.00;;;;;;5036999;28;20295;-77
2022/03/28 11:43:30;;;;;;;39.83;26.07;;;16.40;1.00;;;;;;5054973;28;20255;-76
2022/03/28 11:45:57;;;;;;;39.20;25.83;;;16.40;1.00;;;;;;5037340;28;20554;-76
2022/03/28 11:48:23;;;;;;;36.40;25.43;;;16.50;1.00;;;;;;5055509;28;20225;-76
2022/03/28 11:50:49;;;;;;;39.10;26.23;;;16.60;1.00;;;;;;5054690;28;20273;-76
2022/03/28 11:53:16;;;;;;;38.33;24.67;;;16.50;1.00;;;;;;5055297;28;20163;-76
2022/03/28 11:55:53;;;;;;;40.30;25.03;;;16.50;1.00;;;;;;5040245;28;20178;-76
2022/03/28 11:58:29;;;;;;;37.60;25.23;;;16.60;1.00;;;;;;5058378;28;20152;-76
2022/03/28 12:01:07;;;;;;;37.20;25.73;;;16.80;1.00;;;;;;5057822;28;20191;-76
2022/03/28 12:03:33;;;;;;;33.20;23.73;;;16.80;1.00;;;;;;5058051;28;20164;-76
2022/03/28 12:06:00;;;;;;;35.53;24.30;;;16.80;99.90;;;;;;5057854;28;20184;-76
2022/03/28 12:08:28;;;;;;;38.27;25.40;;;16.80;1.00;;;;;;5039674;28;20206;-76
2022/03/28 12:10:54;;;;;;;37.77;26.03;;;16.80;1.00;;;;;;5058460;28;20733;-76
2022/03/28 12:13:21;;;;;;;41.37;28.17;;;16.90;99.90;;;;;;5040281;28;20172;-76
2022/03/28 12:15:49;;;;;;;45.40;29.00;;;17.10;99.90;;;;;;5058614;28;20171;-76
2022/03/28 12:18:17;;;;;;;43.30;27.60;;;17.10;99.90;;;;;;5040113;28;20172;-76
2022/03/28 12:20:45;;;;;;;38.07;25.43;;;17.10;99.90;;;;;;5058284;28;20270;-76
2022/03/28 12:23:14;;;;;;;35.87;23.97;;;17.20;99.90;;;;;;5058113;28;20168;-76
2022/03/28 12:25:41;;;;;;;37.10;23.37;;;17.20;99.90;;;;;;5058273;28;20251;-77
2022/03/28 12:28:10;;;;;;;35.10;23.13;;;17.20;99.90;;;;;;5039581;28;20694;-76
2022/03/28 12:30:42;;;;;;;36.93;23.77;;;17.40;99.90;;;;;;5040479;28;20242;-76
2022/03/28 12:33:26;;;;;;;31.87;22.23;;;17.40;99.90;;;;;;5058445;28;20657;-77
2022/03/28 12:35:55;;;;;;;34.53;23.10;;;17.40;99.90;;;;;;5040327;28;20164;-76
2022/03/28 12:38:24;;;;;;;40.13;24.73;;;17.40;99.90;;;;;;5039202;28;20180;-76
2022/03/28 12:40:52;;;;;;;35.73;22.57;;;17.50;99.90;;;;;;5056467;28;20188;-76
2022/03/28 12:43:20;;;;;;;39.23;24.10;;;17.60;99.90;;;;;;5056517;28;20175;-76
2022/03/28 12:45:46;;;;;;;38.83;22.83;;;17.50;99.90;;;;;;5038450;28;20182;-75